Bella Vita — ZGAG5 — position and weather

sailwx.info

Track history (hours):
 
Tides and Currents Weather Stations Pressure Air Temp Water Temp Dewpoint Dewpoint Depression Visibility Wind Speed Wind Dir Waves Ship Positions

Bella Vita

Last reported at 2015-Jul-04 06:32 UTC. Time now 2015-Jul-04 10:06 UTC.
Position N 41°23' W 070°30'.

Length 45 m; draft 2.5 m.

Type: Pleasure craft. MMSI: 319016600.

Date/timePositionNaut miles runAvg speedWind from/ knotsBaromVisibWave heightAir tempDewpointWater temp
2015-Jul-04 06:32N 41°23' W 070°30'0 0.0
2015-Jul-04 05:32N 41°23' W 070°30'0 0.0
2015-Jul-04 04:29N 41°23' W 070°30'0 0.0
2015-Jul-04 03:32N 41°23' W 070°30'0 0.0
2015-Jul-04 02:32N 41°23' W 070°30'0 0.0
2015-Jul-04 01:32N 41°23' W 070°30'0 0.1
2015-Jul-04 01:20N 41°23' W 070°30'0 0.0
2015-Jul-04 00:32N 41°23' W 070°30'1 7.1
2015-Jul-04 00:26N 41°23' W 070°31'1 0.9
2015-Jul-03 23:33N 41°23' W 070°30'0 1.1
2015-Jul-03 23:32N 41°23' W 070°30'0 0.0
2015-Jul-03 22:32N 41°23' W 070°30'0 0.3
2015-Jul-03 22:29N 41°23' W 070°30'0 0.0
2015-Jul-03 21:29N 41°23' W 070°30'3 3.5
2015-Jul-03 20:32N 41°27' W 070°30'9 8.8
2015-Jul-03 19:30N 41°29' W 070°41'11 9.8
2015-Jul-03 18:21N 41°24' W 070°55'911.0
2015-Jul-03 17:33N 41°24' W 071°06'1211.5
2015-Jul-03 16:33N 41°26' W 071°21'3 3.4
2015-Jul-03 15:32N 41°29' W 071°19'0 0.0
2015-Jul-03 14:32N 41°29' W 071°19'0 0.0
2015-Jul-03 13:29N 41°29' W 071°19'0 0.0
2015-Jul-03 12:32N 41°29' W 071°19'0 0.0
2015-Jul-03 11:32N 41°29' W 071°19'0 0.3
2015-Jul-03 11:26N 41°29' W 071°19'0 0.0
2015-Jul-03 10:32N 41°29' W 071°19'0 0.0
2015-Jul-03 09:32N 41°29' W 071°19'0 0.0
2015-Jul-03 08:32N 41°29' W 071°19'0 0.0
2015-Jul-03 07:32N 41°29' W 071°19'0 0.0
2015-Jul-03 06:32N 41°29' W 071°19'0 0.0
2015-Jul-03 05:29N 41°29' W 071°19'0 0.0
2015-Jul-03 04:32N 41°29' W 071°19'0 0.0
2015-Jul-03 03:32N 41°29' W 071°19'0 0.0
2015-Jul-03 02:14N 41°29' W 071°19'0 0.0
2015-Jul-03 01:32N 41°29' W 071°19'0 0.0
2015-Jul-03 00:32N 41°29' W 071°19'0 0.0
2015-Jul-02 23:32N 41°29' W 071°19'0 0.0
2015-Jul-02 22:32N 41°29' W 071°19'0 0.0
2015-Jul-02 21:26N 41°29' W 071°19'0 0.0
2015-Jul-02 19:32N 41°29' W 071°19'0 0.0
2015-Jul-02 18:29N 41°29' W 071°19'0 0.0
2015-Jul-02 17:32N 41°29' W 071°19'0 0.0
2015-Jul-02 16:32N 41°29' W 071°19'0 0.0
2015-Jul-02 15:32N 41°29' W 071°19'0 0.0
2015-Jul-02 14:29N 41°29' W 071°19'0 0.0
2015-Jul-02 13:29N 41°29' W 071°19'0 0.0
2015-Jul-02 12:32N 41°29' W 071°19'0 0.0
2015-Jul-02 11:32N 41°29' W 071°19'0 0.0
2015-Jul-02 10:23N 41°29' W 071°19'0 0.0
2015-Jul-02 09:32N 41°29' W 071°19'0 0.0
2015-Jul-02 08:32N 41°29' W 071°19'0 0.0
2015-Jul-02 07:29N 41°29' W 071°19'0 0.0
2015-Jul-02 06:32N 41°29' W 071°19'0 0.0
2015-Jul-02 05:32N 41°29' W 071°19'0 0.0
2015-Jul-02 04:32N 41°29' W 071°19'0 0.0
2015-Jul-02 03:32N 41°29' W 071°19'0 0.0
2015-Jul-02 02:32N 41°29' W 071°19'0 0.0
2015-Jul-02 01:32N 41°29' W 071°19'0 0.0
2015-Jul-02 00:32N 41°29' W 071°19'0 0.0
2015-Jul-01 23:29N 41°29' W 071°19'0 0.0
2015-Jul-01 22:29N 41°29' W 071°19'0 0.0
2015-Jul-01 21:32N 41°29' W 071°19'0 0.0
2015-Jul-01 20:26N 41°29' W 071°19'0 0.0
2015-Jul-01 19:29N 41°29' W 071°19'0 0.0
2015-Jul-01 18:29N 41°29' W 071°19'0 0.0
2015-Jul-01 17:29N 41°29' W 071°19'0 0.0
2015-Jul-01 16:20N 41°29' W 071°19'0 0.0
2015-Jul-01 15:26N 41°29' W 071°19'0 0.0
2015-Jul-01 14:32N 41°29' W 071°19'0 0.0
2015-Jul-01 13:32N 41°29' W 071°19'0 0.0
2015-Jul-01 12:32N 41°29' W 071°19'0 0.0
2015-Jul-01 11:29N 41°29' W 071°19'0 0.0
2015-Jul-01 10:26N 41°29' W 071°19'0 0.0
2015-Jul-01 09:26N 41°29' W 071°19'0 0.0
2015-Jul-01 08:29N 41°29' W 071°19'0 0.0
2015-Jul-01 07:32N 41°29' W 071°19'0 0.0
2015-Jul-01 06:20N 41°29' W 071°19'0 0.0
2015-Jul-01 05:17N 41°29' W 071°19'0 0.0
2015-Jul-01 04:32N 41°29' W 071°19'0 0.0
2015-Jul-01 03:32N 41°29' W 071°19'0 0.0
2015-Jul-01 02:32N 41°29' W 071°19'0 0.0
2015-Jul-01 01:32N 41°29' W 071°19'0 0.0
2015-Jul-01 00:29N 41°29' W 071°19'0 0.0
2015-Jun-30 23:32N 41°29' W 071°19'0 0.0
2015-Jun-30 22:17N 41°29' W 071°19'0 0.0
2015-Jun-30 21:32N 41°29' W 071°19'0 0.0
2015-Jun-30 20:32N 41°29' W 071°19'0 0.0
2015-Jun-30 19:32N 41°29' W 071°19'0 0.0
2015-Jun-30 18:32N 41°29' W 071°19'0 0.0
2015-Jun-30 17:29N 41°29' W 071°19'0 0.0
2015-Jun-30 16:32N 41°29' W 071°19'0 0.0
2015-Jun-30 15:20N 41°29' W 071°19'0 0.0
2015-Jun-30 14:32N 41°29' W 071°19'0 0.0
2015-Jun-30 13:23N 41°29' W 071°19'0 0.0
2015-Jun-30 12:32N 41°29' W 071°19'0 0.0
2015-Jun-30 11:29N 41°29' W 071°19'0 0.0
2015-Jun-30 10:32N 41°29' W 071°19'0 0.0
2015-Jun-30 09:29N 41°29' W 071°19'0 0.0
2015-Jun-30 08:32N 41°29' W 071°19'0 0.0
2015-Jun-30 07:32N 41°29' W 071°19'0 0.0
2015-Jun-30 06:32N 41°29' W 071°19'0 0.0
2015-Jun-30 05:32N 41°29' W 071°19'0 0.0
2015-Jun-30 04:29N 41°29' W 071°19'0 0.0
2015-Jun-30 03:29N 41°29' W 071°19'0 0.0
2015-Jun-30 02:08N 41°29' W 071°19'0 0.0
2015-Jun-30 01:29N 41°29' W 071°19'0 0.0
2015-Jun-30 00:32N 41°29' W 071°19'0 0.0
2015-Jun-29 23:29N 41°29' W 071°19'0 0.0
2015-Jun-29 22:32N 41°29' W 071°19'0 0.0
2015-Jun-29 21:29N 41°29' W 071°19'0 0.0
2015-Jun-29 20:29N 41°29' W 071°19'0 0.0
2015-Jun-29 19:32N 41°29' W 071°19'0 0.0
2015-Jun-29 18:26N 41°29' W 071°19'0 0.0
2015-Jun-29 17:26N 41°29' W 071°19'0 0.0
2015-Jun-29 16:32N 41°29' W 071°19'0 0.0
2015-Jun-29 15:26N 41°29' W 071°19'0 0.0
2015-Jun-29 14:32N 41°29' W 071°19'0 0.0
2015-Jun-29 13:29N 41°29' W 071°19'0 0.0
2015-Jun-29 12:23N 41°29' W 071°19'0 0.0
2015-Jun-29 07:32N 41°29' W 071°19'0 0.0
2015-Jun-29 06:26N 41°29' W 071°19'0 0.0
2015-Jun-29 05:32N 41°29' W 071°19'0 0.0
2015-Jun-29 04:29N 41°29' W 071°19'0 0.0
2015-Jun-29 03:32N 41°29' W 071°19'0 0.0
2015-Jun-29 02:32N 41°29' W 071°19'0 0.0
2015-Jun-29 01:29N 41°29' W 071°19'0 0.0
2015-Jun-29 00:32N 41°29' W 071°19'0 0.0
2015-Jun-28 23:32N 41°29' W 071°19'0 0.0
2015-Jun-28 22:32N 41°29' W 071°19'0 0.0
2015-Jun-28 21:29N 41°29' W 071°19'0 0.0
2015-Jun-28 20:32N 41°29' W 071°19'0 0.0
2015-Jun-28 19:32N 41°29' W 071°19'0 0.0
2015-Jun-28 18:26N 41°29' W 071°19'0 0.0
2015-Jun-28 17:29N 41°29' W 071°19'0 0.0
2015-Jun-28 16:32N 41°29' W 071°19'0 0.0
2015-Jun-28 15:32N 41°29' W 071°19'0 0.0
2015-Jun-28 14:32N 41°29' W 071°19'0 0.0
2015-Jun-28 13:29N 41°29' W 071°19'0 0.0
2015-Jun-28 12:29N 41°29' W 071°19'0 0.0
2015-Jun-28 11:32N 41°29' W 071°19'0 0.0
2015-Jun-28 10:32N 41°29' W 071°19'0 0.0
2015-Jun-28 09:32N 41°29' W 071°19'0 0.0
2015-Jun-28 08:11N 41°29' W 071°19'0 0.0
2015-Jun-28 07:29N 41°29' W 071°19'0 0.0
2015-Jun-28 06:32N 41°29' W 071°19'0 0.0
2015-Jun-28 05:29N 41°29' W 071°19'0 0.0
2015-Jun-28 04:29N 41°29' W 071°19'0 0.0
2015-Jun-28 03:32N 41°29' W 071°19'0 0.0
2015-Jun-28 02:29N 41°29' W 071°19'0 0.0
2015-Jun-28 01:32N 41°29' W 071°19'0 0.0
2015-Jun-28 00:26N 41°29' W 071°19'0 0.0
2015-Jun-27 23:32N 41°29' W 071°19'0 0.0
2015-Jun-27 22:32N 41°29' W 071°19'0 0.0
2015-Jun-27 21:26N 41°29' W 071°19'0 0.0
2015-Jun-27 20:32N 41°29' W 071°19'0 0.0
2015-Jun-27 19:32N 41°29' W 071°19'0 0.0
2015-Jun-27 18:23N 41°29' W 071°19'0 0.0
2015-Jun-27 17:32N 41°29' W 071°19'0 0.0
2015-Jun-27 16:32N 41°29' W 071°19'0 0.0
2015-Jun-27 15:32N 41°29' W 071°19'0 0.2
2015-Jun-27 14:31N 41°29' W 071°19'0 0.0
2015-Jun-27 13:31N 41°29' W 071°19'0 0.0
2015-Jun-27 12:31N 41°29' W 071°19'0 0.0
2015-Jun-27 11:28N 41°29' W 071°19'0 0.0
2015-Jun-27 10:31N 41°29' W 071°19'0 0.0
2015-Jun-27 09:31N 41°29' W 071°19'0 0.0
2015-Jun-27 08:31N 41°29' W 071°19'0 0.0
2015-Jun-27 07:31N 41°29' W 071°19'0 0.0
2015-Jun-27 06:31N 41°29' W 071°19'0 0.0
2015-Jun-27 05:31N 41°29' W 071°19'0 0.0
2015-Jun-27 04:31N 41°29' W 071°19'3 3.3
2015-Jun-27 03:33N 41°27' W 071°22'1212.1
2015-Jun-27 02:33N 41°15' W 071°21'1111.4
2015-Jun-27 01:33N 41°04' W 071°26'1211.8
2015-Jun-27 00:33N 40°57' W 071°38'1211.9
2015-Jun-26 23:33N 40°49' W 071°50'1212.2
2015-Jun-26 22:33N 40°42' W 072°03'1212.3
2015-Jun-26 21:33N 40°34' W 072°16'1212.2
2015-Jun-26 20:33N 40°27' W 072°29'1212.2
2015-Jun-26 19:33N 40°19' W 072°41'1312.3
2015-Jun-26 18:27N 40°11' W 072°55'1112.4
2015-Jun-26 17:33N 40°04' W 073°07'  
Track history (hours):
 
Tides and Currents Weather Stations Pressure Air Temp Water Temp Dewpoint Dewpoint Depression Visibility Wind Speed Wind Dir Waves Ship Positions

Bella Vita

Last reported at 2015-Jul-04 06:32 UTC. Time now 2015-Jul-04 10:06 UTC.
Position N 41°23' W 070°30'.

Length 45 m; draft 2.5 m.

Type: Pleasure craft. MMSI: 319016600.

Date/timePositionNaut miles runAvg speedWind from/ knotsBaromVisibWave heightAir tempDewpointWater temp
2015-Jul-04 06:32N 41°23' W 070°30'0 0.0
2015-Jul-04 05:32N 41°23' W 070°30'0 0.0
2015-Jul-04 04:29N 41°23' W 070°30'0 0.0
2015-Jul-04 03:32N 41°23' W 070°30'0 0.0
2015-Jul-04 02:32N 41°23' W 070°30'0 0.0
2015-Jul-04 01:32N 41°23' W 070°30'0 0.1
2015-Jul-04 01:20N 41°23' W 070°30'0 0.0
2015-Jul-04 00:32N 41°23' W 070°30'1 7.1
2015-Jul-04 00:26N 41°23' W 070°31'1 0.9
2015-Jul-03 23:33N 41°23' W 070°30'0 1.1
2015-Jul-03 23:32N 41°23' W 070°30'0 0.0
2015-Jul-03 22:32N 41°23' W 070°30'0 0.3
2015-Jul-03 22:29N 41°23' W 070°30'0 0.0
2015-Jul-03 21:29N 41°23' W 070°30'3 3.5
2015-Jul-03 20:32N 41°27' W 070°30'9 8.8
2015-Jul-03 19:30N 41°29' W 070°41'11 9.8
2015-Jul-03 18:21N 41°24' W 070°55'911.0
2015-Jul-03 17:33N 41°24' W 071°06'1211.5
2015-Jul-03 16:33N 41°26' W 071°21'3 3.4
2015-Jul-03 15:32N 41°29' W 071°19'0 0.0
2015-Jul-03 14:32N 41°29' W 071°19'0 0.0
2015-Jul-03 13:29N 41°29' W 071°19'0 0.0
2015-Jul-03 12:32N 41°29' W 071°19'0 0.0
2015-Jul-03 11:32N 41°29' W 071°19'0 0.3
2015-Jul-03 11:26N 41°29' W 071°19'0 0.0
2015-Jul-03 10:32N 41°29' W 071°19'0 0.0
2015-Jul-03 09:32N 41°29' W 071°19'0 0.0
2015-Jul-03 08:32N 41°29' W 071°19'0 0.0
2015-Jul-03 07:32N 41°29' W 071°19'0 0.0
2015-Jul-03 06:32N 41°29' W 071°19'0 0.0
2015-Jul-03 05:29N 41°29' W 071°19'0 0.0
2015-Jul-03 04:32N 41°29' W 071°19'0 0.0
2015-Jul-03 03:32N 41°29' W 071°19'0 0.0
2015-Jul-03 02:14N 41°29' W 071°19'0 0.0
2015-Jul-03 01:32N 41°29' W 071°19'0 0.0
2015-Jul-03 00:32N 41°29' W 071°19'0 0.0
2015-Jul-02 23:32N 41°29' W 071°19'0 0.0
2015-Jul-02 22:32N 41°29' W 071°19'0 0.0
2015-Jul-02 21:26N 41°29' W 071°19'0 0.0
2015-Jul-02 19:32N 41°29' W 071°19'0 0.0
2015-Jul-02 18:29N 41°29' W 071°19'0 0.0
2015-Jul-02 17:32N 41°29' W 071°19'0 0.0
2015-Jul-02 16:32N 41°29' W 071°19'0 0.0
2015-Jul-02 15:32N 41°29' W 071°19'0 0.0
2015-Jul-02 14:29N 41°29' W 071°19'0 0.0
2015-Jul-02 13:29N 41°29' W 071°19'0 0.0
2015-Jul-02 12:32N 41°29' W 071°19'0 0.0
2015-Jul-02 11:32N 41°29' W 071°19'0 0.0
2015-Jul-02 10:23N 41°29' W 071°19'0 0.0
2015-Jul-02 09:32N 41°29' W 071°19'0 0.0
2015-Jul-02 08:32N 41°29' W 071°19'0 0.0
2015-Jul-02 07:29N 41°29' W 071°19'0 0.0
2015-Jul-02 06:32N 41°29' W 071°19'0 0.0
2015-Jul-02 05:32N 41°29' W 071°19'0 0.0
2015-Jul-02 04:32N 41°29' W 071°19'0 0.0
2015-Jul-02 03:32N 41°29' W 071°19'0 0.0
2015-Jul-02 02:32N 41°29' W 071°19'0 0.0
2015-Jul-02 01:32N 41°29' W 071°19'0 0.0
2015-Jul-02 00:32N 41°29' W 071°19'0 0.0
2015-Jul-01 23:29N 41°29' W 071°19'0 0.0
2015-Jul-01 22:29N 41°29' W 071°19'0 0.0
2015-Jul-01 21:32N 41°29' W 071°19'0 0.0
2015-Jul-01 20:26N 41°29' W 071°19'0 0.0
2015-Jul-01 19:29N 41°29' W 071°19'0 0.0
2015-Jul-01 18:29N 41°29' W 071°19'0 0.0
2015-Jul-01 17:29N 41°29' W 071°19'0 0.0
2015-Jul-01 16:20N 41°29' W 071°19'0 0.0
2015-Jul-01 15:26N 41°29' W 071°19'0 0.0
2015-Jul-01 14:32N 41°29' W 071°19'0 0.0
2015-Jul-01 13:32N 41°29' W 071°19'0 0.0
2015-Jul-01 12:32N 41°29' W 071°19'0 0.0
2015-Jul-01 11:29N 41°29' W 071°19'0 0.0
2015-Jul-01 10:26N 41°29' W 071°19'0 0.0
2015-Jul-01 09:26N 41°29' W 071°19'0 0.0
2015-Jul-01 08:29N 41°29' W 071°19'0 0.0
2015-Jul-01 07:32N 41°29' W 071°19'0 0.0
2015-Jul-01 06:20N 41°29' W 071°19'0 0.0
2015-Jul-01 05:17N 41°29' W 071°19'0 0.0
2015-Jul-01 04:32N 41°29' W 071°19'0 0.0
2015-Jul-01 03:32N 41°29' W 071°19'0 0.0
2015-Jul-01 02:32N 41°29' W 071°19'0 0.0
2015-Jul-01 01:32N 41°29' W 071°19'0 0.0
2015-Jul-01 00:29N 41°29' W 071°19'0 0.0
2015-Jun-30 23:32N 41°29' W 071°19'0 0.0
2015-Jun-30 22:17N 41°29' W 071°19'0 0.0
2015-Jun-30 21:32N 41°29' W 071°19'0 0.0
2015-Jun-30 20:32N 41°29' W 071°19'0 0.0
2015-Jun-30 19:32N 41°29' W 071°19'0 0.0
2015-Jun-30 18:32N 41°29' W 071°19'0 0.0
2015-Jun-30 17:29N 41°29' W 071°19'0 0.0
2015-Jun-30 16:32N 41°29' W 071°19'0 0.0
2015-Jun-30 15:20N 41°29' W 071°19'0 0.0
2015-Jun-30 14:32N 41°29' W 071°19'0 0.0
2015-Jun-30 13:23N 41°29' W 071°19'0 0.0
2015-Jun-30 12:32N 41°29' W 071°19'0 0.0
2015-Jun-30 11:29N 41°29' W 071°19'0 0.0
2015-Jun-30 10:32N 41°29' W 071°19'0 0.0
2015-Jun-30 09:29N 41°29' W 071°19'0 0.0
2015-Jun-30 08:32N 41°29' W 071°19'0 0.0
2015-Jun-30 07:32N 41°29' W 071°19'0 0.0
2015-Jun-30 06:32N 41°29' W 071°19'0 0.0
2015-Jun-30 05:32N 41°29' W 071°19'0 0.0
2015-Jun-30 04:29N 41°29' W 071°19'0 0.0
2015-Jun-30 03:29N 41°29' W 071°19'0 0.0
2015-Jun-30 02:08N 41°29' W 071°19'0 0.0
2015-Jun-30 01:29N 41°29' W 071°19'0 0.0
2015-Jun-30 00:32N 41°29' W 071°19'0 0.0
2015-Jun-29 23:29N 41°29' W 071°19'0 0.0
2015-Jun-29 22:32N 41°29' W 071°19'0 0.0
2015-Jun-29 21:29N 41°29' W 071°19'0 0.0
2015-Jun-29 20:29N 41°29' W 071°19'0 0.0
2015-Jun-29 19:32N 41°29' W 071°19'0 0.0
2015-Jun-29 18:26N 41°29' W 071°19'0 0.0
2015-Jun-29 17:26N 41°29' W 071°19'0 0.0
2015-Jun-29 16:32N 41°29' W 071°19'0 0.0
2015-Jun-29 15:26N 41°29' W 071°19'0 0.0
2015-Jun-29 14:32N 41°29' W 071°19'0 0.0
2015-Jun-29 13:29N 41°29' W 071°19'0 0.0
2015-Jun-29 12:23N 41°29' W 071°19'0 0.0
2015-Jun-29 07:32N 41°29' W 071°19'0 0.0
2015-Jun-29 06:26N 41°29' W 071°19'0 0.0
2015-Jun-29 05:32N 41°29' W 071°19'0 0.0
2015-Jun-29 04:29N 41°29' W 071°19'0 0.0
2015-Jun-29 03:32N 41°29' W 071°19'0 0.0
2015-Jun-29 02:32N 41°29' W 071°19'0 0.0
2015-Jun-29 01:29N 41°29' W 071°19'0 0.0
2015-Jun-29 00:32N 41°29' W 071°19'0 0.0
2015-Jun-28 23:32N 41°29' W 071°19'0 0.0
2015-Jun-28 22:32N 41°29' W 071°19'0 0.0
2015-Jun-28 21:29N 41°29' W 071°19'0 0.0
2015-Jun-28 20:32N 41°29' W 071°19'0 0.0
2015-Jun-28 19:32N 41°29' W 071°19'0 0.0
2015-Jun-28 18:26N 41°29' W 071°19'0 0.0
2015-Jun-28 17:29N 41°29' W 071°19'0 0.0
2015-Jun-28 16:32N 41°29' W 071°19'0 0.0
2015-Jun-28 15:32N 41°29' W 071°19'0 0.0
2015-Jun-28 14:32N 41°29' W 071°19'0 0.0
2015-Jun-28 13:29N 41°29' W 071°19'0 0.0
2015-Jun-28 12:29N 41°29' W 071°19'0 0.0
2015-Jun-28 11:32N 41°29' W 071°19'0 0.0
2015-Jun-28 10:32N 41°29' W 071°19'0 0.0
2015-Jun-28 09:32N 41°29' W 071°19'0 0.0
2015-Jun-28 08:11N 41°29' W 071°19'0 0.0
2015-Jun-28 07:29N 41°29' W 071°19'0 0.0
2015-Jun-28 06:32N 41°29' W 071°19'0 0.0
2015-Jun-28 05:29N 41°29' W 071°19'0 0.0
2015-Jun-28 04:29N 41°29' W 071°19'0 0.0
2015-Jun-28 03:32N 41°29' W 071°19'0 0.0
2015-Jun-28 02:29N 41°29' W 071°19'0 0.0
2015-Jun-28 01:32N 41°29' W 071°19'0 0.0
2015-Jun-28 00:26N 41°29' W 071°19'0 0.0
2015-Jun-27 23:32N 41°29' W 071°19'0 0.0
2015-Jun-27 22:32N 41°29' W 071°19'0 0.0
2015-Jun-27 21:26N 41°29' W 071°19'0 0.0
2015-Jun-27 20:32N 41°29' W 071°19'0 0.0
2015-Jun-27 19:32N 41°29' W 071°19'0 0.0
2015-Jun-27 18:23N 41°29' W 071°19'0 0.0
2015-Jun-27 17:32N 41°29' W 071°19'0 0.0
2015-Jun-27 16:32N 41°29' W 071°19'0 0.0
2015-Jun-27 15:32N 41°29' W 071°19'0 0.2
2015-Jun-27 14:31N 41°29' W 071°19'0 0.0
2015-Jun-27 13:31N 41°29' W 071°19'0 0.0
2015-Jun-27 12:31N 41°29' W 071°19'0 0.0
2015-Jun-27 11:28N 41°29' W 071°19'0 0.0
2015-Jun-27 10:31N 41°29' W 071°19'0 0.0
2015-Jun-27 09:31N 41°29' W 071°19'0 0.0
2015-Jun-27 08:31N 41°29' W 071°19'0 0.0
2015-Jun-27 07:31N 41°29' W 071°19'0 0.0
2015-Jun-27 06:31N 41°29' W 071°19'0 0.0
2015-Jun-27 05:31N 41°29' W 071°19'0 0.0
2015-Jun-27 04:31N 41°29' W 071°19'3 3.3
2015-Jun-27 03:33N 41°27' W 071°22'1212.1
2015-Jun-27 02:33N 41°15' W 071°21'1111.4
2015-Jun-27 01:33N 41°04' W 071°26'1211.8
2015-Jun-27 00:33N 40°57' W 071°38'1211.9
2015-Jun-26 23:33N 40°49' W 071°50'1212.2
2015-Jun-26 22:33N 40°42' W 072°03'1212.3
2015-Jun-26 21:33N 40°34' W 072°16'1212.2
2015-Jun-26 20:33N 40°27' W 072°29'1212.2
2015-Jun-26 19:33N 40°19' W 072°41'1312.3
2015-Jun-26 18:27N 40°11' W 072°55'1112.4
2015-Jun-26 17:33N 40°04' W 073°07'  

Dump ship's entire track history